Time;durP1;ratioP1;P1;durP2;ratioP2;P2;SDS_P1;SDS_P2;PMS_P1;PMS_P2;Temp;Humidity;BMP_temperature;BMP_pressure;BME280_temperature;BME280_humidity;BME280_pressure;Samples;Min_cycle;Max_cycle;Signal;HPM_P1;HPM_P2
2023/04/04 00:02:10;;;;;;;2.25;1.40;;;3.50;99.90;;;;;;5065789;28;20052;-81
2023/04/04 00:04:37;;;;;;;1.95;1.27;;;3.50;99.90;;;;;;5078516;28;20213;-81
2023/04/04 00:07:04;;;;;;;2.63;1.70;;;3.50;99.90;;;;;;5048255;28;20144;-81
2023/04/04 00:09:31;;;;;;;2.35;1.52;;;3.40;99.90;;;;;;5065613;28;20058;-81
2023/04/04 00:11:58;;;;;;;2.95;1.60;;;3.40;99.90;;;;;;5066202;28;20903;-81
2023/04/04 00:14:25;;;;;;;2.08;1.60;;;3.30;99.90;;;;;;5047911;28;20049;-81
2023/04/04 00:16:52;;;;;;;1.90;1.27;;;3.30;99.90;;;;;;5049782;28;20121;-81
2023/04/04 00:19:19;;;;;;;2.45;1.40;;;3.30;99.90;;;;;;5083423;28;20060;-81
2023/04/04 00:21:46;;;;;;;1.98;1.75;;;3.30;99.90;;;;;;5045004;28;20214;-81
2023/04/04 00:24:13;;;;;;;3.47;1.45;;;3.30;99.90;;;;;;5064176;28;20400;-81
2023/04/04 00:26:40;;;;;;;2.40;1.80;;;3.20;99.90;;;;;;5032765;28;20064;-81
2023/04/04 00:29:06;;;;;;;3.75;2.55;;;3.20;99.90;;;;;;5048897;28;20087;-81
2023/04/04 00:31:33;;;;;;;3.20;1.92;;;3.20;99.90;;;;;;5036169;28;20051;-81
2023/04/04 00:34:00;;;;;;;3.90;2.25;;;3.20;99.90;;;;;;5066254;28;20123;-80
2023/04/04 00:36:27;;;;;;;3.13;1.92;;;3.10;99.90;;;;;;5081864;28;20076;-81
2023/04/04 00:38:54;;;;;;;4.43;2.50;;;3.00;99.90;;;;;;5065658;28;20139;-81
2023/04/04 00:41:21;;;;;;;3.60;2.10;;;3.00;99.90;;;;;;5083454;28;20403;-80
2023/04/04 00:43:48;;;;;;;4.05;2.30;;;2.90;99.90;;;;;;5081218;28;20074;-81
2023/04/04 00:46:17;;;;;;;4.53;2.40;;;2.90;99.90;;;;;;4710940;28;10000309;-80
2023/04/04 00:48:44;;;;;;;6.20;2.75;;;2.90;99.90;;;;;;5067671;28;20085;-81
2023/04/04 00:51:11;;;;;;;3.15;2.33;;;2.80;99.90;;;;;;5066517;28;20205;-81
2023/04/04 00:53:38;;;;;;;3.88;1.90;;;2.80;99.90;;;;;;5067885;28;20059;-81
2023/04/04 00:56:05;;;;;;;3.65;1.83;;;2.80;99.90;;;;;;5067132;28;20052;-81
2023/04/04 00:58:32;;;;;;;3.00;1.75;;;2.80;99.90;;;;;;5051787;28;20044;-81
2023/04/04 01:01:00;;;;;;;3.05;2.05;;;2.70;99.90;;;;;;5051257;28;20066;-81
2023/04/04 01:03:28;;;;;;;4.13;2.20;;;2.70;99.90;;;;;;5047885;28;20044;-80
2023/04/04 01:05:55;;;;;;;3.22;2.08;;;2.70;99.90;;;;;;5062717;28;20070;-81
2023/04/04 01:08:23;;;;;;;4.65;2.38;;;2.70;99.90;;;;;;5067013;28;20086;-81
2023/04/04 01:10:50;;;;;;;4.53;2.50;;;2.70;99.90;;;;;;5033990;28;20059;-81
2023/04/04 01:13:17;;;;;;;4.07;1.95;;;2.70;99.90;;;;;;5050828;28;20116;-81
2023/04/04 01:15:44;;;;;;;3.83;2.22;;;2.70;99.90;;;;;;5034241;28;20105;-81
2023/04/04 01:18:12;;;;;;;3.72;1.90;;;2.70;99.90;;;;;;5051335;28;20048;-81
2023/04/04 01:21:01;;;;;;;4.68;2.50;;;2.70;99.90;;;;;;5032911;28;20090;-81
2023/04/04 01:23:47;;;;;;;4.10;2.53;;;2.60;99.90;;;;;;5050648;28;20052;-80
2023/04/04 01:26:13;;;;;;;3.72;2.20;;;2.50;99.90;;;;;;5063774;28;20134;-81
2023/04/04 01:28:40;;;;;;;4.13;2.40;;;2.50;99.90;;;;;;5063040;28;20071;-81
2023/04/04 01:31:08;;;;;;;4.22;2.67;;;2.50;99.90;;;;;;5038660;28;20052;-81
2023/04/04 01:34:17;;;;;;;6.18;2.70;;;2.50;99.90;;;;;;4713934;28;9999951;-80
2023/04/04 01:37:00;;;;;;;4.40;2.30;;;2.40;99.90;;;;;;5082630;28;20088;-81
2023/04/04 01:39:31;;;;;;;4.45;2.58;;;2.50;99.90;;;;;;5070666;28;20123;-81
2023/04/04 01:41:58;;;;;;;3.08;1.95;;;2.40;99.90;;;;;;5069494;28;20044;-80
2023/04/04 01:44:25;;;;;;;3.70;2.17;;;2.40;99.90;;;;;;5057740;28;20123;-81
2023/04/04 01:46:53;;;;;;;4.03;2.10;;;2.40;99.90;;;;;;5058046;28;20062;-80
2023/04/04 01:49:23;;;;;;;2.78;1.85;;;2.30;99.90;;;;;;5053268;28;20040;-80
2023/04/04 01:51:50;;;;;;;5.70;2.58;;;2.30;99.90;;;;;;5067243;28;20109;-80
2023/04/04 01:54:21;;;;;;;5.15;2.45;;;2.30;99.90;;;;;;5072895;28;20566;-81
2023/04/04 01:56:48;;;;;;;2.97;2.10;;;2.30;99.90;;;;;;5052683;28;20548;-81
2023/04/04 01:59:15;;;;;;;3.53;2.22;;;2.30;99.90;;;;;;5051532;28;20136;-80
2023/04/04 02:01:42;;;;;;;3.47;2.10;;;2.30;99.90;;;;;;5070449;28;20817;-80
2023/04/04 02:04:11;;;;;;;3.15;2.22;;;2.30;99.90;;;;;;5038387;28;20055;-80
2023/04/04 02:06:39;;;;;;;3.78;2.28;;;2.20;99.90;;;;;;5084306;28;20070;-79
2023/04/04 02:09:06;;;;;;;3.38;2.30;;;2.20;99.90;;;;;;5066985;28;20080;-80
2023/04/04 02:11:32;;;;;;;3.33;2.20;;;2.20;99.90;;;;;;5085404;28;20434;-80
2023/04/04 02:13:59;;;;;;;3.40;1.90;;;2.10;99.90;;;;;;5053444;28;20056;-80
2023/04/04 02:16:26;;;;;;;3.58;2.25;;;2.00;99.90;;;;;;5069120;28;20100;-80
2023/04/04 02:18:54;;;;;;;3.38;2.10;;;2.00;99.90;;;;;;5064393;28;20055;-79
2023/04/04 02:21:20;;;;;;;2.90;1.95;;;2.00;99.90;;;;;;5067767;28;20044;-80
2023/04/04 02:23:47;;;;;;;3.40;1.95;;;1.90;99.90;;;;;;5072724;28;20135;-81
2023/04/04 02:26:14;;;;;;;2.85;1.98;;;2.00;99.90;;;;;;5067145;28;20109;-80
2023/04/04 02:28:41;;;;;;;3.00;1.92;;;1.90;99.90;;;;;;5050087;28;20136;-80
2023/04/04 02:31:07;;;;;;;3.85;2.28;;;1.90;99.90;;;;;;5035793;28;20048;-80
2023/04/04 02:33:34;;;;;;;2.78;2.00;;;1.90;99.90;;;;;;5032374;28;20040;-80
2023/04/04 02:36:01;;;;;;;3.03;2.00;;;1.90;99.90;;;;;;5056293;28;20142;-80
2023/04/04 02:38:28;;;;;;;4.45;2.75;;;1.90;99.90;;;;;;5031739;28;20135;-80
2023/04/04 02:40:55;;;;;;;2.83;1.90;;;1.90;99.90;;;;;;5047970;28;20079;-81
2023/04/04 02:43:21;;;;;;;4.40;1.95;;;1.80;99.90;;;;;;5058738;28;20048;-80
2023/04/04 02:45:48;;;;;;;3.45;1.90;;;1.90;99.90;;;;;;5068569;28;20054;-81
2023/04/04 02:48:15;;;;;;;4.32;2.17;;;1.80;99.90;;;;;;5051894;28;20052;-80
2023/04/04 02:50:42;;;;;;;2.95;1.85;;;1.90;99.90;;;;;;5050736;28;20218;-80
2023/04/04 02:53:09;;;;;;;3.85;2.20;;;1.90;99.90;;;;;;5035625;28;20514;-80
2023/04/04 02:55:36;;;;;;;2.92;1.95;;;1.90;99.90;;;;;;5067922;28;20086;-80
2023/04/04 02:58:02;;;;;;;3.30;2.00;;;1.80;99.90;;;;;;5068533;28;20080;-81
2023/04/04 03:00:29;;;;;;;3.33;1.98;;;1.80;99.90;;;;;;5067894;28;20055;-81
2023/04/04 03:02:56;;;;;;;4.03;2.10;;;1.80;99.90;;;;;;5032155;28;20148;-80
2023/04/04 03:05:27;;;;;;;3.40;2.40;;;1.70;99.90;;;;;;5030428;28;20052;-80
2023/04/04 03:07:57;;;;;;;3.05;2.20;;;1.70;99.90;;;;;;5031589;28;20060;-80
2023/04/04 03:10:24;;;;;;;2.95;1.80;;;1.70;99.90;;;;;;5031879;28;20549;-80
2023/04/04 03:12:51;;;;;;;3.55;2.13;;;1.70;99.90;;;;;;5046604;28;20563;-80
2023/04/04 03:15:18;;;;;;;3.08;2.05;;;1.70;99.90;;;;;;5085764;28;20047;-80
2023/04/04 03:17:45;;;;;;;3.63;2.10;;;1.70;99.90;;;;;;5034798;28;20054;-81
2023/04/04 03:20:13;;;;;;;3.08;2.10;;;1.70;99.90;;;;;;5049806;28;20044;-80
2023/04/04 03:22:41;;;;;;;3.50;2.42;;;1.60;99.90;;;;;;5051276;28;20402;-80
2023/04/04 03:25:08;;;;;;;3.10;2.08;;;1.70;99.90;;;;;;5067506;28;20044;-78
2023/04/04 03:27:35;;;;;;;3.20;1.90;;;1.60;99.90;;;;;;5033129;28;20113;-80
2023/04/04 03:30:02;;;;;;;2.53;1.73;;;1.60;99.90;;;;;;5066455;28;20049;-80
2023/04/04 03:32:29;;;;;;;3.40;2.08;;;1.60;99.90;;;;;;5076920;28;20661;-80
2023/04/04 03:34:55;;;;;;;3.10;2.28;;;1.60;99.90;;;;;;5061987;28;20054;-81
2023/04/04 03:37:23;;;;;;;3.72;1.90;;;1.60;99.90;;;;;;5070222;28;20106;-80
2023/04/04 03:39:49;;;;;;;2.70;1.95;;;1.60;99.90;;;;;;5076638;28;20074;-80
2023/04/04 03:42:16;;;;;;;3.67;2.63;;;1.60;99.90;;;;;;5084515;28;20040;-80
2023/04/04 03:44:43;;;;;;;3.47;1.92;;;1.50;99.90;;;;;;5086057;28;20580;-80
2023/04/04 03:47:09;;;;;;;2.42;1.73;;;1.50;99.90;;;;;;5086258;28;20052;-79
2023/04/04 03:49:36;;;;;;;2.95;2.10;;;1.50;99.90;;;;;;5085663;28;20070;-80
2023/04/04 03:52:03;;;;;;;4.57;2.17;;;1.50;99.90;;;;;;5046466;28;20056;-80
2023/04/04 03:54:30;;;;;;;3.33;2.03;;;1.50;99.90;;;;;;5046707;28;20140;-80
2023/04/04 03:56:56;;;;;;;2.95;1.88;;;1.50;99.90;;;;;;5044919;28;20105;-80
2023/04/04 03:59:23;;;;;;;3.13;2.03;;;1.50;99.90;;;;;;5044585;28;20448;-80
2023/04/04 04:01:51;;;;;;;2.45;1.77;;;1.50;99.90;;;;;;5045239;28;20137;-80
2023/04/04 04:04:19;;;;;;;4.10;1.88;;;1.40;99.90;;;;;;5044010;28;20151;-80
2023/04/04 04:06:47;;;;;;;2.90;2.08;;;1.40;99.90;;;;;;5042981;28;20163;-79
2023/04/04 04:09:14;;;;;;;2.97;1.65;;;1.40;99.90;;;;;;5045621;28;20500;-80
2023/04/04 04:11:41;;;;;;;2.97;1.63;;;1.30;99.90;;;;;;5027279;28;20048;-80
2023/04/04 04:14:08;;;;;;;3.03;1.80;;;1.30;99.90;;;;;;5026990;28;20045;-79
2023/04/04 04:16:37;;;;;;;3.13;1.88;;;1.30;99.90;;;;;;5045194;28;20128;-80
2023/04/04 04:19:04;;;;;;;3.95;2.08;;;1.30;99.90;;;;;;5030717;28;20153;-80
2023/04/04 04:21:31;;;;;;;1.83;1.45;;;1.30;99.90;;;;;;5013725;28;20047;-81
2023/04/04 04:23:58;;;;;;;2.88;1.67;;;1.30;99.90;;;;;;5047950;28;20077;-81
2023/04/04 04:26:25;;;;;;;3.97;2.35;;;1.30;99.90;;;;;;5047575;28;20159;-81
2023/04/04 04:28:51;;;;;;;4.72;2.58;;;1.30;99.90;;;;;;5047956;28;20132;-81
2023/04/04 04:31:18;;;;;;;2.65;2.08;;;1.30;99.90;;;;;;5031377;28;20060;-80
2023/04/04 04:33:45;;;;;;;3.33;1.95;;;1.20;99.90;;;;;;5031406;28;20045;-81
2023/04/04 04:36:12;;;;;;;4.30;2.47;;;1.10;99.90;;;;;;5063077;28;20057;-81
2023/04/04 04:38:38;;;;;;;3.05;2.17;;;1.00;99.90;;;;;;5050050;28;20151;-79
2023/04/04 04:41:05;;;;;;;2.88;1.90;;;1.00;99.90;;;;;;5051034;28;20109;-81
2023/04/04 04:43:32;;;;;;;3.30;2.10;;;1.00;99.90;;;;;;5040755;28;20057;-81
2023/04/04 04:46:00;;;;;;;2.67;2.00;;;1.00;99.90;;;;;;5047148;28;20127;-80
2023/04/04 04:48:26;;;;;;;3.58;2.40;;;1.00;99.90;;;;;;5045024;28;20499;-80
2023/04/04 04:50:53;;;;;;;3.13;1.95;;;1.00;99.90;;;;;;5029403;28;20103;-80
2023/04/04 04:53:20;;;;;;;2.88;1.77;;;1.00;99.90;;;;;;5018872;28;20115;-81
2023/04/04 04:55:51;;;;;;;2.45;1.85;;;1.00;99.90;;;;;;5080913;28;20635;-81
2023/04/04 04:58:21;;;;;;;4.80;2.25;;;1.00;99.90;;;;;;5033623;28;20048;-81
2023/04/04 05:00:48;;;;;;;3.38;2.53;;;1.00;99.90;;;;;;5047656;28;20041;-79
2023/04/04 05:03:15;;;;;;;3.00;2.00;;;1.00;99.90;;;;;;5023239;28;20052;-81
2023/04/04 05:05:42;;;;;;;4.35;2.55;;;1.00;99.90;;;;;;5054380;28;20045;-81
2023/04/04 05:08:09;;;;;;;4.88;3.25;;;1.00;99.90;;;;;;5044938;28;20056;-81
2023/04/04 05:10:36;;;;;;;4.95;3.00;;;1.00;99.90;;;;;;5052966;28;20463;-80
2023/04/04 05:13:04;;;;;;;6.18;3.67;;;1.00;99.90;;;;;;5055071;28;20140;-81
2023/04/04 05:15:31;;;;;;;6.45;4.18;;;1.00;99.90;;;;;;5073751;28;20044;-82
2023/04/04 05:17:58;;;;;;;5.55;3.33;;;1.00;99.90;;;;;;5052330;28;20080;-82
2023/04/04 05:20:26;;;;;;;5.30;3.35;;;1.00;99.90;;;;;;5040438;28;20074;-81
2023/04/04 05:22:53;;;;;;;4.38;2.90;;;1.00;99.90;;;;;;5048021;28;21415;-82
2023/04/04 05:25:20;;;;;;;3.95;2.55;;;0.90;99.90;;;;;;5020955;28;20083;-80
2023/04/04 05:27:47;;;;;;;3.67;2.40;;;0.90;99.90;;;;;;5053005;28;20582;-81
2023/04/04 05:30:14;;;;;;;3.92;2.47;;;0.90;99.90;;;;;;5020184;28;20086;-82
2023/04/04 05:32:43;;;;;;;3.85;2.60;;;0.90;99.90;;;;;;5021653;28;20255;-80
2023/04/04 05:35:10;;;;;;;6.32;2.90;;;0.90;99.90;;;;;;5039493;28;20517;-79
2023/04/04 05:37:40;;;;;;;5.07;3.20;;;0.90;99.90;;;;;;5039223;28;20054;-80
2023/04/04 05:40:07;;;;;;;4.55;3.00;;;0.90;99.90;;;;;;5049213;28;20082;-81
2023/04/04 05:42:34;;;;;;;3.00;2.22;;;0.80;99.90;;;;;;5041869;28;20500;-80
2023/04/04 05:45:01;;;;;;;3.83;2.50;;;0.90;99.90;;;;;;5027191;28;20084;-81
2023/04/04 05:47:28;;;;;;;3.97;2.58;;;0.90;99.90;;;;;;5039949;28;20503;-81
2023/04/04 05:49:55;;;;;;;4.72;2.63;;;0.90;99.90;;;;;;5024421;28;20049;-83
2023/04/04 05:52:22;;;;;;;4.63;2.05;;;0.90;99.90;;;;;;5052914;28;20148;-82
2023/04/04 05:54:50;;;;;;;3.20;2.38;;;0.80;99.90;;;;;;5050241;28;20071;-81
2023/04/04 05:57:16;;;;;;;3.63;2.50;;;0.90;99.90;;;;;;5023035;28;20487;-82
2023/04/04 05:59:43;;;;;;;3.20;2.53;;;0.90;99.90;;;;;;5032626;28;20168;-81
2023/04/04 06:02:10;;;;;;;4.20;2.83;;;1.00;99.90;;;;;;5052128;28;20208;-80
2023/04/04 06:04:39;;;;;;;4.60;2.80;;;1.00;99.90;;;;;;5023734;28;20503;-81
2023/04/04 06:07:06;;;;;;;4.78;2.97;;;0.90;99.90;;;;;;5031273;28;20549;-82
2023/04/04 06:09:35;;;;;;;2.95;2.00;;;0.90;99.90;;;;;;5038823;28;20063;-82
2023/04/04 06:12:03;;;;;;;3.63;2.80;;;0.90;99.90;;;;;;5019924;28;20451;-81
2023/04/04 06:14:30;;;;;;;3.58;2.50;;;1.00;99.90;;;;;;5036298;28;20048;-81
2023/04/04 06:16:57;;;;;;;3.17;2.00;;;1.10;99.90;;;;;;5037069;28;20048;-82
2023/04/04 06:19:24;;;;;;;3.42;1.88;;;1.10;99.90;;;;;;5073690;28;20051;-81
2023/04/04 06:21:50;;;;;;;3.50;2.08;;;1.20;99.90;;;;;;5055563;28;20130;-82
2023/04/04 06:24:17;;;;;;;2.58;1.92;;;1.20;99.90;;;;;;5057283;28;20149;-83
2023/04/04 06:26:44;;;;;;;3.40;2.05;;;1.20;99.90;;;;;;5040095;28;20062;-81
2023/04/04 06:29:12;;;;;;;2.83;1.83;;;1.30;99.90;;;;;;5058369;28;20063;-82
2023/04/04 06:31:38;;;;;;;3.88;2.17;;;1.30;99.90;;;;;;5044450;28;20911;-82
2023/04/04 06:34:06;;;;;;;2.85;1.90;;;1.30;99.90;;;;;;5054586;28;20059;-82
2023/04/04 06:36:33;;;;;;;2.13;1.73;;;1.40;99.90;;;;;;5055300;28;20728;-82
2023/04/04 06:39:00;;;;;;;4.15;2.13;;;1.50;99.90;;;;;;5054796;28;20044;-81
2023/04/04 06:41:27;;;;;;;2.58;1.92;;;1.50;99.90;;;;;;5028785;28;20480;-88
2023/04/04 06:43:53;;;;;;;2.85;1.98;;;1.50;99.90;;;;;;5069059;28;20143;-91
2023/04/04 06:46:20;;;;;;;2.70;1.90;;;1.60;99.90;;;;;;5045746;28;20114;-90
2023/04/04 06:48:47;;;;;;;3.30;2.03;;;1.60;99.90;;;;;;5046019;28;20052;-89
2023/04/04 06:51:14;;;;;;;2.28;1.80;;;1.70;99.90;;;;;;5065071;28;20092;-90
2023/04/04 06:53:41;;;;;;;3.25;1.70;;;1.70;99.90;;;;;;5065902;28;20055;-88
2023/04/04 06:56:08;;;;;;;3.67;2.05;;;1.70;99.90;;;;;;5049422;28;20142;-89
2023/04/04 06:58:37;;;;;;;2.20;1.80;;;1.70;99.90;;;;;;5033316;28;20614;-88
2023/04/04 07:01:04;;;;;;;2.95;1.83;;;1.80;99.90;;;;;;5066502;28;20040;-89
2023/04/04 07:03:31;;;;;;;1.95;1.50;;;1.90;99.90;;;;;;5048241;28;20293;-88
2023/04/04 07:06:00;;;;;;;1.90;1.48;;;1.90;99.90;;;;;;5065011;28;20075;-87
2023/04/04 07:08:28;;;;;;;2.67;2.00;;;1.90;99.90;;;;;;5049238;28;20694;-87
2023/04/04 07:11:01;;;;;;;3.20;2.28;;;2.00;99.90;;;;;;5030130;28;20156;-88
2023/04/04 07:13:28;;;;;;;2.53;1.98;;;2.10;99.90;;;;;;5074830;28;20048;-87
2023/04/04 07:15:55;;;;;;;2.85;1.73;;;2.10;99.90;;;;;;5066319;28;20140;-86
2023/04/04 07:18:21;;;;;;;2.15;1.60;;;2.20;99.90;;;;;;5065121;28;20045;-87
2023/04/04 07:20:48;;;;;;;2.50;1.85;;;2.20;99.90;;;;;;5064398;28;20589;-87
2023/04/04 07:23:15;;;;;;;2.05;1.60;;;2.30;99.90;;;;;;5065846;28;20048;-88
2023/04/04 07:25:42;;;;;;;1.85;1.52;;;2.40;99.90;;;;;;5064748;28;20095;-87
2023/04/04 07:28:10;;;;;;;2.72;1.77;;;2.50;99.90;;;;;;5061448;28;20056;-87
2023/04/04 07:30:39;;;;;;;2.25;1.55;;;2.60;99.90;;;;;;5062395;28;20053;-88
2023/04/04 07:33:06;;;;;;;2.90;1.92;;;2.60;99.90;;;;;;5065413;28;20048;-88
2023/04/04 07:35:34;;;;;;;3.65;1.80;;;2.70;99.90;;;;;;5048443;28;20102;-88
2023/04/04 07:38:01;;;;;;;1.90;1.40;;;2.70;99.90;;;;;;5033056;28;20048;-88
2023/04/04 07:40:28;;;;;;;2.08;1.63;;;2.80;99.90;;;;;;5045918;28;20051;-89
2023/04/04 07:42:55;;;;;;;2.85;1.52;;;2.80;99.90;;;;;;5053727;28;20087;-87
2023/04/04 07:45:22;;;;;;;1.90;1.30;;;2.90;99.90;;;;;;5065847;28;20045;-88
2023/04/04 07:47:49;;;;;;;2.28;1.38;;;3.00;99.90;;;;;;5066912;28;20048;-89
2023/04/04 07:50:16;;;;;;;2.22;1.42;;;3.00;99.90;;;;;;5063278;28;20095;-88
2023/04/04 07:52:48;;;;;;;2.17;1.50;;;3.10;99.90;;;;;;5065648;28;20167;-88
2023/04/04 07:55:15;;;;;;;1.73;1.55;;;3.20;99.90;;;;;;5052857;28;20056;-88
2023/04/04 07:57:43;;;;;;;1.25;1.15;;;3.30;99.90;;;;;;5069567;28;20088;-86
2023/04/04 08:00:10;;;;;;;1.73;1.17;;;3.40;99.90;;;;;;5037465;28;20483;-88
2023/04/04 08:02:37;;;;;;;1.83;1.42;;;3.50;99.90;;;;;;5068786;28;20044;-88
2023/04/04 08:05:05;;;;;;;2.05;1.48;;;3.60;99.90;;;;;;5050666;28;20051;-89
2023/04/04 08:07:32;;;;;;;2.20;1.38;;;3.70;99.90;;;;;;5060933;28;20052;-88
2023/04/04 08:09:59;;;;;;;1.88;1.30;;;3.90;99.90;;;;;;5048085;28;20053;-89
2023/04/04 08:12:26;;;;;;;3.60;1.45;;;4.00;99.90;;;;;;5078524;28;20130;-89
2023/04/04 08:14:52;;;;;;;1.95;1.15;;;4.10;99.90;;;;;;5068425;28;20060;-87
2023/04/04 08:17:19;;;;;;;2.13;1.25;;;4.20;99.90;;;;;;5054580;28;20044;-86
2023/04/04 08:19:46;;;;;;;1.98;1.50;;;4.30;99.90;;;;;;5037074;28;20051;-87
2023/04/04 08:22:13;;;;;;;2.75;1.75;;;4.40;99.90;;;;;;5048975;28;20048;-87
2023/04/04 08:24:40;;;;;;;1.60;1.20;;;4.50;99.90;;;;;;5045605;28;20135;-89
2023/04/04 08:27:07;;;;;;;2.90;1.50;;;4.60;99.90;;;;;;5042242;28;20171;-86
2023/04/04 08:29:34;;;;;;;4.82;1.80;;;4.70;99.90;;;;;;5083970;28;20072;-87
2023/04/04 08:32:01;;;;;;;2.00;1.33;;;4.80;99.90;;;;;;5049230;28;20062;-87
2023/04/04 08:34:28;;;;;;;2.00;1.30;;;4.90;99.90;;;;;;5067113;28;20045;-88
2023/04/04 08:36:55;;;;;;;2.55;1.80;;;5.00;99.90;;;;;;5068756;28;20135;-87
2023/04/04 08:39:22;;;;;;;2.05;1.27;;;5.20;99.90;;;;;;5066527;28;20589;-88
2023/04/04 08:41:49;;;;;;;2.33;1.13;;;5.30;99.90;;;;;;5050850;28;20135;-89
2023/04/04 08:44:21;;;;;;;3.45;1.90;;;5.40;99.90;;;;;;5070713;28;20135;-88
2023/04/04 08:46:48;;;;;;;4.80;2.40;;;5.50;99.90;;;;;;5072388;28;20621;-87
2023/04/04 08:49:15;;;;;;;3.58;2.58;;;5.60;99.90;;;;;;5054863;28;20561;-87
2023/04/04 08:51:42;;;;;;;4.35;2.95;;;5.70;99.90;;;;;;5050003;28;20056;-80
2023/04/04 08:54:10;;;;;;;4.32;2.30;;;5.90;99.90;;;;;;5068991;28;20051;-82
2023/04/04 08:56:37;;;;;;;3.63;2.42;;;5.90;99.90;;;;;;5035651;28;20598;-81
2023/04/04 08:59:04;;;;;;;3.80;2.22;;;6.00;99.90;;;;;;5068003;28;20070;-80
2023/04/04 09:01:32;;;;;;;3.65;2.45;;;6.10;99.90;;;;;;5034886;28;20064;-80
2023/04/04 09:03:59;;;;;;;5.22;3.10;;;6.20;99.90;;;;;;5051188;28;20044;-80
2023/04/04 09:06:26;;;;;;;4.15;2.10;;;6.40;99.90;;;;;;5032844;28;20062;-81
2023/04/04 09:08:54;;;;;;;3.17;2.40;;;6.50;99.90;;;;;;5034816;28;20082;-81
2023/04/04 09:11:20;;;;;;;3.55;2.20;;;6.60;99.90;;;;;;5048081;28;20055;-82
2023/04/04 09:13:48;;;;;;;3.75;2.20;;;6.70;99.90;;;;;;5048119;28;20552;-80
2023/04/04 09:16:14;;;;;;;3.20;2.33;;;6.80;99.90;;;;;;5051107;28;20048;-81
2023/04/04 09:18:41;;;;;;;3.75;2.00;;;7.10;99.90;;;;;;5067948;28;20044;-81
2023/04/04 09:21:10;;;;;;;2.50;1.60;;;7.30;99.90;;;;;;5065898;28;20048;-81
2023/04/04 09:23:37;;;;;;;2.72;1.92;;;7.40;99.90;;;;;;5065887;28;20150;-81
2023/04/04 09:26:04;;;;;;;3.08;1.42;;;7.50;99.90;;;;;;5045371;28;20130;-80
2023/04/04 09:28:31;;;;;;;3.30;2.10;;;7.60;99.90;;;;;;5043220;28;20078;-80
2023/04/04 09:31:04;;;;;;;2.55;1.52;;;7.80;99.90;;;;;;5062194;28;20131;-81
2023/04/04 09:33:32;;;;;;;2.33;1.55;;;7.90;99.90;;;;;;5064314;28;20052;-82
2023/04/04 09:36:08;;;;;;;3.10;1.65;;;8.00;99.90;;;;;;5046251;28;20068;-81
2023/04/04 09:38:37;;;;;;;3.47;2.00;;;8.00;99.90;;;;;;5049722;28;20055;-86
2023/04/04 09:41:10;;;;;;;3.88;2.20;;;8.10;99.90;;;;;;5048384;28;20048;-80
2023/04/04 09:43:38;;;;;;;;;;;8.10;99.90;;;;;;5048178;28;20048;-80
2023/04/04 09:46:05;;;;;;;5.50;2.60;;;8.20;99.90;;;;;;5066865;28;19920;-81
2023/04/04 09:48:33;;;;;;;3.08;2.17;;;8.20;99.90;;;;;;5067659;28;20048;-80
2023/04/04 09:51:04;;;;;;;3.10;1.85;;;8.30;99.90;;;;;;5049858;28;20056;-80
2023/04/04 09:53:38;;;;;;;2.28;1.60;;;8.40;99.90;;;;;;5049806;28;20380;-79
2023/04/04 09:56:05;;;;;;;1.90;1.58;;;8.50;99.90;;;;;;5051248;28;20083;-80
2023/04/04 09:58:35;;;;;;;3.58;2.10;;;8.60;99.90;;;;;;5050469;28;20088;-80
2023/04/04 10:01:03;;;;;;;3.13;1.52;;;8.60;99.90;;;;;;5051235;28;20079;-80
2023/04/04 10:03:30;;;;;;;2.25;1.40;;;8.70;99.90;;;;;;5050417;28;20064;-80
2023/04/04 10:06:05;;;;;;;2.33;1.45;;;8.70;99.90;;;;;;5065406;28;20131;-81
2023/04/04 10:08:33;;;;;;;2.20;1.58;;;8.70;99.90;;;;;;5034737;28;20652;-80
2023/04/04 10:11:04;;;;;;;2.67;1.90;;;8.70;99.90;;;;;;5066635;28;20052;-80
2023/04/04 10:13:35;;;;;;;2.67;1.55;;;8.80;99.90;;;;;;5051454;28;20055;-80
2023/04/04 10:16:03;;;;;;;3.42;2.03;;;8.90;99.90;;;;;;5066357;28;20102;-79
2023/04/04 10:18:34;;;;;;;4.65;2.13;;;9.00;99.90;;;;;;5050131;28;20151;-80
2023/04/04 10:21:05;;;;;;;1.92;1.35;;;9.10;99.90;;;;;;5047782;28;20131;-80
2023/04/04 10:23:37;;;;;;;3.92;2.15;;;9.10;99.90;;;;;;5050194;28;20059;-80
2023/04/04 10:26:04;;;;;;;3.40;2.03;;;9.20;99.90;;;;;;5045260;28;20040;-79
2023/04/04 10:28:31;;;;;;;3.17;1.73;;;9.30;99.90;;;;;;5061457;28;20044;-80
2023/04/04 10:31:20;;;;;;;4.13;2.33;;;9.30;99.90;;;;;;5063377;28;20056;-80
2023/04/04 10:34:09;;;;;;;4.38;1.70;;;9.40;99.90;;;;;;5049903;28;20348;-80
2023/04/04 10:36:44;;;;;;;3.25;1.90;;;9.50;99.90;;;;;;5081434;28;20089;-80
2023/04/04 10:39:43;;;;;;;2.40;1.70;;;9.50;99.90;;;;;;5047484;28;20533;-80
2023/04/04 10:42:10;;;;;;;3.00;2.28;;;9.60;99.90;;;;;;5067056;28;20059;-80
2023/04/04 10:44:38;;;;;;;2.70;1.60;;;9.60;99.90;;;;;;5033234;28;20119;-80
2023/04/04 10:47:24;;;;;;;2.33;1.52;;;9.70;99.90;;;;;;5066059;28;20454;-80
2023/04/04 10:49:52;;;;;;;3.17;1.92;;;9.80;99.90;;;;;;5050334;28;20048;-80
2023/04/04 10:52:20;;;;;;;4.20;2.10;;;10.00;99.90;;;;;;5033404;28;20084;-77
2023/04/04 10:54:56;;;;;;;2.97;1.60;;;10.00;99.90;;;;;;5049941;28;20048;-81
2023/04/04 10:57:23;;;;;;;2.28;1.52;;;10.10;99.90;;;;;;5049968;28;20127;-75
2023/04/04 11:00:03;;;;;;;2.97;1.80;;;10.20;99.90;;;;;;5051849;28;20055;-84
2023/04/04 11:02:46;;;;;;;3.50;2.17;;;10.30;99.90;;;;;;5068908;28;20048;-83
2023/04/04 11:05:50;;;;;;;2.90;1.95;;;10.40;99.90;;;;;;5045733;28;20052;-81
2023/04/04 11:08:18;;;;;;;;;;;10.50;99.90;;;;;;5053145;28;20056;-81
2023/04/04 11:10:47;;;;;;;2.33;1.38;;;10.50;99.10;;;;;;5078456;28;19919;-81
2023/04/04 11:13:17;;;;;;;5.20;2.35;;;10.50;99.80;;;;;;5082845;28;20381;-81
2023/04/04 11:16:03;;;;;;;2.72;2.05;;;10.50;99.90;;;;;;5062704;28;20176;-82
2023/04/04 11:18:30;;;;;;;2.80;1.95;;;10.60;99.70;;;;;;5030592;28;20085;-81
2023/04/04 11:21:04;;;;;;;2.25;1.73;;;10.70;99.80;;;;;;5082353;28;20048;-81
2023/04/04 11:23:46;;;;;;;3.47;1.70;;;11.00;99.80;;;;;;5064256;28;20621;-81
2023/04/04 11:26:17;;;;;;;3.00;1.60;;;11.30;98.30;;;;;;5080595;28;20055;-81
2023/04/04 11:28:44;;;;;;;3.83;2.58;;;11.40;98.40;;;;;;5046723;28;20131;-80
2023/04/04 11:31:18;;;;;;;4.13;2.22;;;11.60;98.10;;;;;;5065436;28;20131;-81
2023/04/04 11:33:54;;;;;;;2.70;1.70;;;11.80;98.00;;;;;;5083579;28;20048;-80
2023/04/04 11:36:36;;;;;;;3.45;1.85;;;12.10;97.80;;;;;;5064093;28;20130;-82
2023/04/04 11:39:23;;;;;;;4.18;1.67;;;12.50;97.00;;;;;;5083716;28;20067;-81
2023/04/04 11:42:09;;;;;;;2.95;1.98;;;13.00;95.20;;;;;;5065570;28;20074;-81
2023/04/04 11:44:40;;;;;;;4.13;2.35;;;13.20;95.50;;;;;;5050056;28;20483;-81
2023/04/04 11:47:10;;;;;;;2.55;1.83;;;13.50;95.70;;;;;;5083920;28;20055;-82
2023/04/04 11:49:39;;;;;;;3.22;2.20;;;13.50;94.40;;;;;;5083747;28;20051;-82
2023/04/04 11:52:10;;;;;;;2.50;1.35;;;13.80;94.50;;;;;;5064497;28;20321;-81
2023/04/04 11:54:38;;;;;;;1.83;1.17;;;14.40;93.60;;;;;;5049246;28;20055;-81
2023/04/04 11:57:06;;;;;;;2.88;1.45;;;14.80;92.60;;;;;;5083256;28;20048;-81
2023/04/04 11:59:37;;;;;;;1.83;1.20;;;15.30;92.50;;;;;;5049147;28;20052;-81
2023/04/04 12:02:04;;;;;;;2.30;1.20;;;15.70;90.10;;;;;;5062316;28;20950;-82
2023/04/04 12:04:31;;;;;;;1.80;1.10;;;16.00;88.10;;;;;;5062056;28;20047;-81
2023/04/04 12:06:59;;;;;;;1.48;1.00;;;16.40;85.30;;;;;;5062679;28;20047;-81
2023/04/04 12:09:26;;;;;;;2.13;1.63;;;16.90;86.20;;;;;;5065363;28;20052;-81
2023/04/04 12:11:55;;;;;;;2.70;2.00;;;16.80;86.20;;;;;;5065100;28;20048;-81
2023/04/04 12:14:23;;;;;;;1.45;1.20;;;16.90;84.90;;;;;;5065166;28;20048;-81
2023/04/04 12:16:51;;;;;;;1.85;1.15;;;17.30;82.30;;;;;;5065674;28;20044;-81
2023/04/04 12:19:18;;;;;;;1.80;1.10;;;17.60;82.60;;;;;;5065398;28;20058;-81
2023/04/04 12:21:45;;;;;;;2.10;1.13;;;17.90;82.60;;;;;;5046680;28;20131;-81
2023/04/04 12:24:12;;;;;;;1.83;1.40;;;18.30;79.30;;;;;;5046246;28;20044;-80
2023/04/04 12:26:44;;;;;;;2.55;1.30;;;18.50;77.60;;;;;;5045619;28;20141;-81
2023/04/04 12:29:11;;;;;;;1.73;1.45;;;18.10;78.30;;;;;;5063120;28;20550;-81
2023/04/04 12:31:40;;;;;;;1.88;1.33;;;18.10;78.00;;;;;;5083076;28;20150;-81
2023/04/04 12:34:14;;;;;;;2.60;1.48;;;18.10;78.20;;;;;;5049389;28;20051;-81
2023/04/04 12:36:41;;;;;;;3.40;1.83;;;18.20;77.10;;;;;;5046749;28;20051;-81
2023/04/04 12:39:10;;;;;;;2.67;1.63;;;18.00;75.40;;;;;;5066673;28;20048;-81
2023/04/04 12:41:56;;;;;;;2.40;1.40;;;18.20;75.90;;;;;;5053019;28;20137;-81
2023/04/04 12:44:30;;;;;;;1.88;1.27;;;18.80;75.00;;;;;;5069006;28;20391;-81
2023/04/04 12:47:01;;;;;;;1.05;0.90;;;19.10;75.10;;;;;;5052308;28;20059;-82
2023/04/04 12:49:30;;;;;;;1.42;1.13;;;19.80;75.80;;;;;;5053320;28;20264;-81
2023/04/04 12:52:03;;;;;;;1.83;1.10;;;20.40;75.20;;;;;;5049827;28;20087;-81
2023/04/04 12:54:31;;;;;;;1.52;1.10;;;21.00;73.30;;;;;;5069265;28;20064;-81
2023/04/04 12:56:58;;;;;;;1.35;0.93;;;21.30;73.20;;;;;;5051500;28;20075;-81
2023/04/04 12:59:29;;;;;;;1.50;1.15;;;21.40;69.40;;;;;;5086272;28;20507;-81
2023/04/04 13:01:56;;;;;;;1.33;1.02;;;21.10;68.10;;;;;;5051162;28;20075;-81
2023/04/04 13:04:23;;;;;;;2.17;1.25;;;21.00;68.10;;;;;;5082331;28;20056;-82